Time;durP1;ratioP1;P1;durP2;ratioP2;P2;SDS_P1;SDS_P2;PMS_P1;PMS_P2;Temp;Humidity;BMP_temperature;BMP_pressure;BME280_temperature;BME280_humidity;BME280_pressure;Samples;Min_cycle;Max_cycle;Signal;HPM_P1;HPM_P2
2022/02/14 00:00:37;;;;;;;5.30;3.00;;;12.80;61.60;;;;;;5031907;28;20518;-72
2022/02/14 00:03:04;;;;;;;5.65;3.17;;;12.80;61.60;;;;;;5032235;28;20108;-72
2022/02/14 00:05:32;;;;;;;5.63;3.00;;;12.80;61.60;;;;;;5015468;28;20045;-72
2022/02/14 00:07:58;;;;;;;3.72;2.88;;;12.80;61.60;;;;;;5014931;28;20045;-72
2022/02/14 00:10:24;;;;;;;4.15;2.70;;;12.80;61.70;;;;;;5032082;28;20387;-72
2022/02/14 00:12:51;;;;;;;7.32;2.80;;;12.80;61.80;;;;;;5031698;28;20045;-72
2022/02/14 00:15:17;;;;;;;5.53;3.10;;;12.80;61.80;;;;;;5031932;28;20074;-72
2022/02/14 00:17:44;;;;;;;9.55;3.05;;;12.80;61.80;;;;;;5031944;28;20033;-72
2022/02/14 00:20:10;;;;;;;7.18;2.95;;;12.80;61.90;;;;;;5032357;28;20082;-72
2022/02/14 00:22:36;;;;;;;5.90;2.67;;;12.90;62.00;;;;;;5032482;28;20049;-72
2022/02/14 00:25:03;;;;;;;5.43;2.70;;;12.80;61.90;;;;;;5032368;28;20341;-72
2022/02/14 00:27:29;;;;;;;6.15;2.83;;;12.80;62.00;;;;;;5031774;28;20120;-72
2022/02/14 00:29:54;;;;;;;6.82;3.42;;;12.80;62.10;;;;;;5031486;28;20124;-72
2022/02/14 00:32:20;;;;;;;4.32;2.75;;;12.90;62.10;;;;;;5031761;28;20041;-72
2022/02/14 00:34:47;;;;;;;4.65;2.22;;;12.90;62.30;;;;;;5032097;28;20098;-72
2022/02/14 00:37:12;;;;;;;5.10;2.95;;;12.90;62.30;;;;;;5031860;28;20037;-72
2022/02/14 00:39:39;;;;;;;5.60;3.10;;;12.80;62.10;;;;;;5031700;28;20067;-72
2022/02/14 00:42:06;;;;;;;7.15;3.13;;;12.80;62.30;;;;;;5032131;28;20053;-72
2022/02/14 00:44:31;;;;;;;6.78;3.30;;;12.90;62.50;;;;;;5031988;28;20098;-72
2022/02/14 00:46:57;;;;;;;6.65;3.25;;;12.90;62.50;;;;;;5032179;28;20041;-72
2022/02/14 00:49:23;;;;;;;6.53;2.92;;;12.90;62.70;;;;;;5031649;28;20053;-72
2022/02/14 00:51:49;;;;;;;8.15;3.40;;;12.90;62.60;;;;;;5034072;28;20128;-72
2022/02/14 00:54:15;;;;;;;6.35;2.92;;;12.90;62.50;;;;;;5034789;28;20085;-72
2022/02/14 00:56:41;;;;;;;3.83;2.60;;;12.90;62.50;;;;;;5035373;28;20106;-72
2022/02/14 00:59:06;;;;;;;6.80;2.83;;;12.90;62.60;;;;;;5035494;28;20057;-72
2022/02/14 01:01:32;;;;;;;4.75;2.72;;;12.90;62.60;;;;;;5034705;28;20086;-72
2022/02/14 01:03:58;;;;;;;8.32;2.78;;;12.90;62.60;;;;;;5034766;28;20041;-72
2022/02/14 01:06:27;;;;;;;4.03;2.45;;;12.90;62.70;;;;;;5017485;28;20521;-72
2022/02/14 01:08:53;;;;;;;5.95;3.08;;;12.90;62.80;;;;;;5018275;28;20046;-72
2022/02/14 01:11:19;;;;;;;4.43;2.38;;;12.90;62.80;;;;;;5034693;28;20045;-72
2022/02/14 01:13:46;;;;;;;4.85;2.95;;;12.90;62.80;;;;;;5034750;28;20122;-73
2022/02/14 01:16:12;;;;;;;7.28;3.15;;;12.90;62.60;;;;;;5034883;28;20029;-72
2022/02/14 01:18:38;;;;;;;4.43;2.30;;;12.90;62.70;;;;;;5034651;28;20064;-72
2022/02/14 01:21:04;;;;;;;4.47;2.80;;;12.90;62.80;;;;;;5034599;28;20042;-71
2022/02/14 01:23:29;;;;;;;5.10;2.50;;;12.90;62.90;;;;;;5034513;28;20484;-73
2022/02/14 01:25:55;;;;;;;3.72;2.28;;;12.90;63.00;;;;;;5034050;28;20077;-72
2022/02/14 01:28:21;;;;;;;4.75;2.53;;;12.90;63.00;;;;;;5017761;28;20041;-72
2022/02/14 01:30:47;;;;;;;8.20;3.03;;;12.90;63.00;;;;;;5017155;28;20052;-72
2022/02/14 01:33:12;;;;;;;4.85;2.85;;;12.90;63.00;;;;;;5017486;28;20110;-72
2022/02/14 01:35:38;;;;;;;4.90;2.97;;;12.90;63.00;;;;;;5034179;28;20110;-72
2022/02/14 01:38:04;;;;;;;5.20;2.50;;;12.90;63.10;;;;;;5034252;28;20041;-72
2022/02/14 01:40:30;;;;;;;4.28;2.72;;;12.90;63.20;;;;;;5034269;28;20033;-72
2022/02/14 01:42:56;;;;;;;5.88;2.45;;;12.90;63.20;;;;;;5035073;28;20057;-72
2022/02/14 01:45:21;;;;;;;4.18;2.33;;;12.90;63.10;;;;;;5034105;28;20373;-72
2022/02/14 01:47:47;;;;;;;5.18;2.65;;;12.90;63.20;;;;;;5034415;28;20037;-72
2022/02/14 01:50:15;;;;;;;4.75;2.72;;;12.90;63.20;;;;;;5034077;28;20045;-72
2022/02/14 01:52:42;;;;;;;3.65;2.40;;;12.90;63.20;;;;;;5034624;28;20052;-72
2022/02/14 01:55:09;;;;;;;5.20;2.20;;;12.90;63.30;;;;;;5033785;28;20050;-72
2022/02/14 01:57:36;;;;;;;6.22;2.78;;;12.90;63.30;;;;;;5034626;28;20049;-73
2022/02/14 02:00:14;;;;;;;5.50;2.72;;;12.90;63.50;;;;;;5034333;28;20041;-73
2022/02/14 02:02:40;;;;;;;7.30;2.67;;;12.90;63.40;;;;;;5015789;28;20450;-72
2022/02/14 02:05:06;;;;;;;10.23;3.40;;;12.90;63.40;;;;;;5033951;28;20041;-72
2022/02/14 02:07:32;;;;;;;9.45;2.85;;;12.90;63.50;;;;;;5016424;28;20084;-72
2022/02/14 02:09:58;;;;;;;4.07;2.50;;;12.90;63.40;;;;;;5033808;28;20441;-72
2022/02/14 02:12:25;;;;;;;5.13;2.38;;;12.90;63.40;;;;;;5033816;28;20113;-72
2022/02/14 02:14:51;;;;;;;4.50;2.47;;;12.90;63.40;;;;;;5016499;28;20077;-72
2022/02/14 02:17:17;;;;;;;5.95;2.53;;;13.00;63.60;;;;;;5016597;28;20441;-72
2022/02/14 02:19:43;;;;;;;6.45;2.85;;;12.90;63.50;;;;;;5033567;28;20073;-72
2022/02/14 02:22:09;;;;;;;3.80;2.25;;;12.90;63.60;;;;;;5033639;28;20084;-73
2022/02/14 02:24:47;;;;;;;8.93;3.20;;;12.90;63.60;;;;;;5016327;28;20037;-72
2022/02/14 02:27:14;;;;;;;3.47;2.42;;;12.90;63.50;;;;;;5033690;28;20409;-72
2022/02/14 02:29:40;;;;;;;5.55;2.45;;;12.90;63.70;;;;;;5033661;28;20045;-72
2022/02/14 02:32:07;;;;;;;4.40;2.53;;;12.90;63.80;;;;;;5034109;28;20091;-72
2022/02/14 02:34:40;;;;;;;4.22;2.55;;;12.90;63.90;;;;;;5033362;28;20042;-72
2022/02/14 02:37:09;;;;;;;5.63;3.30;;;12.90;63.80;;;;;;5033354;28;20045;-72
2022/02/14 02:39:35;;;;;;;6.63;2.50;;;12.90;63.70;;;;;;5034117;28;20379;-72
2022/02/14 02:42:03;;;;;;;3.53;2.33;;;12.90;63.80;;;;;;5033371;28;20186;-72
2022/02/14 02:44:29;;;;;;;6.68;2.70;;;12.90;63.90;;;;;;5033413;28;20415;-73
2022/02/14 02:46:55;;;;;;;4.57;2.60;;;12.90;63.80;;;;;;5015825;28;20053;-72
2022/02/14 02:49:22;;;;;;;6.55;2.55;;;12.90;63.90;;;;;;5033062;28;20346;-73
2022/02/14 02:51:52;;;;;;;6.50;2.25;;;12.90;64.00;;;;;;5033376;28;20134;-72
2022/02/14 02:54:20;;;;;;;6.65;2.85;;;12.90;64.00;;;;;;5033192;28;20145;-72
2022/02/14 02:56:49;;;;;;;6.10;2.65;;;12.90;64.00;;;;;;5032911;28;20132;-71
2022/02/14 02:59:16;;;;;;;4.13;2.55;;;12.90;64.10;;;;;;5016141;28;20049;-72
2022/02/14 03:01:42;;;;;;;6.95;2.35;;;12.90;64.00;;;;;;5032844;28;20098;-72
2022/02/14 03:04:10;;;;;;;4.15;2.30;;;12.90;64.10;;;;;;5032954;28;20354;-72
2022/02/14 03:06:37;;;;;;;6.85;2.33;;;12.90;64.10;;;;;;5015721;28;20041;-73
2022/02/14 03:09:04;;;;;;;4.90;2.42;;;12.90;64.10;;;;;;5016390;28;20140;-72
2022/02/14 03:11:30;;;;;;;4.75;2.28;;;12.90;64.20;;;;;;5016493;28;20049;-71
2022/02/14 03:13:55;;;;;;;4.15;2.45;;;12.90;64.20;;;;;;5015941;28;20121;-72
2022/02/14 03:16:21;;;;;;;5.47;2.30;;;12.90;64.20;;;;;;5032714;28;20033;-71
2022/02/14 03:18:47;;;;;;;3.20;1.88;;;12.90;64.20;;;;;;5032779;28;20433;-72
2022/02/14 03:21:14;;;;;;;6.70;2.28;;;12.90;64.10;;;;;;5032486;28;20453;-72
2022/02/14 03:23:40;;;;;;;6.60;2.97;;;13.00;64.20;;;;;;5032705;28;20097;-71
2022/02/14 03:26:07;;;;;;;4.43;2.22;;;12.90;64.20;;;;;;5032526;28;20038;-72
2022/02/14 03:28:33;;;;;;;5.43;2.50;;;12.90;64.20;;;;;;5032647;28;20045;-72
2022/02/14 03:31:00;;;;;;;4.03;2.33;;;12.90;64.20;;;;;;5032555;28;20046;-72
2022/02/14 03:33:27;;;;;;;5.57;2.38;;;12.90;64.20;;;;;;5032519;28;20468;-72
2022/02/14 03:35:53;;;;;;;4.97;2.25;;;13.00;64.20;;;;;;5032618;28;20354;-71
2022/02/14 03:38:19;;;;;;;3.42;2.33;;;13.00;64.30;;;;;;5032229;28;20464;-72
2022/02/14 03:40:45;;;;;;;6.10;2.75;;;13.00;64.20;;;;;;5032515;28;20049;-72
2022/02/14 03:43:11;;;;;;;4.22;2.20;;;13.00;64.20;;;;;;5032362;28;20445;-72
2022/02/14 03:45:38;;;;;;;6.22;2.30;;;13.00;64.20;;;;;;5032269;28;20052;-72
2022/02/14 03:48:05;;;;;;;5.28;2.25;;;12.90;64.20;;;;;;5032386;28;20142;-72
2022/02/14 03:50:31;;;;;;;3.78;2.22;;;13.00;64.40;;;;;;5014990;28;20048;-72
2022/02/14 03:52:57;;;;;;;4.30;2.38;;;13.00;64.40;;;;;;5015381;28;20038;-72
2022/02/14 03:55:23;;;;;;;5.35;2.25;;;12.90;64.20;;;;;;5032256;28;20057;-72
2022/02/14 03:57:51;;;;;;;4.45;2.03;;;12.90;64.20;;;;;;5032307;28;20045;-72
2022/02/14 04:00:20;;;;;;;3.35;1.95;;;12.90;64.30;;;;;;5032680;28;20095;-72
2022/02/14 04:02:46;;;;;;;5.25;2.30;;;12.90;64.30;;;;;;5032301;28;20046;-72
2022/02/14 04:05:13;;;;;;;3.95;2.03;;;12.90;64.30;;;;;;5032505;28;20056;-71
2022/02/14 04:07:39;;;;;;;7.00;2.33;;;12.90;64.30;;;;;;5032052;28;20132;-72
2022/02/14 04:10:08;;;;;;;3.65;2.30;;;12.90;64.30;;;;;;5031990;28;20052;-72
2022/02/14 04:12:34;;;;;;;4.85;2.22;;;12.90;64.30;;;;;;5032107;28;20037;-73
2022/02/14 04:15:00;;;;;;;6.43;2.20;;;12.90;64.20;;;;;;5031919;28;20084;-72
2022/02/14 04:17:26;;;;;;;4.68;2.67;;;12.90;64.30;;;;;;5014691;28;20053;-72
2022/02/14 04:19:55;;;;;;;5.85;2.22;;;12.90;64.30;;;;;;5031902;28;20081;-71
2022/02/14 04:22:20;;;;;;;3.97;1.80;;;12.90;64.30;;;;;;5014740;28;20076;-72
2022/02/14 04:24:47;;;;;;;4.75;2.17;;;12.90;64.40;;;;;;5032100;28;20096;-72
2022/02/14 04:27:13;;;;;;;6.28;2.08;;;12.90;64.50;;;;;;5034747;28;20041;-73
2022/02/14 04:29:39;;;;;;;4.30;1.98;;;12.90;64.60;;;;;;5035366;28;20095;-72
2022/02/14 04:32:06;;;;;;;5.88;2.25;;;12.90;64.70;;;;;;5018563;28;20041;-72
2022/02/14 04:34:32;;;;;;;4.45;2.22;;;12.90;64.70;;;;;;5035500;28;20399;-72
2022/02/14 04:36:58;;;;;;;4.60;1.85;;;12.90;64.60;;;;;;5035318;28;20049;-72
2022/02/14 04:39:24;;;;;;;5.65;2.00;;;12.80;64.50;;;;;;5035092;28;20056;-71
2022/02/14 04:41:49;;;;;;;7.05;2.42;;;12.90;64.70;;;;;;5035181;28;20114;-71
2022/02/14 04:44:15;;;;;;;5.10;2.33;;;12.90;64.70;;;;;;5035154;28;20076;-72
2022/02/14 04:46:41;;;;;;;6.18;2.50;;;12.90;64.60;;;;;;5035612;28;20081;-72
2022/02/14 04:49:07;;;;;;;6.60;2.00;;;12.90;64.70;;;;;;5018452;28;20045;-72
2022/02/14 04:51:34;;;;;;;6.97;2.10;;;12.90;64.80;;;;;;5017946;28;20051;-72
2022/02/14 04:54:04;;;;;;;4.95;2.42;;;13.00;65.00;;;;;;5035087;28;20091;-72
2022/02/14 04:56:31;;;;;;;7.30;2.80;;;13.00;64.60;;;;;;5031431;28;20050;-71
2022/02/14 04:58:57;;;;;;;3.88;2.03;;;13.10;63.80;;;;;;5000521;28;20067;-74
2022/02/14 05:01:23;;;;;;;8.35;2.65;;;13.10;63.20;;;;;;5017762;28;20037;-69
2022/02/14 05:03:50;;;;;;;7.57;2.30;;;13.10;62.80;;;;;;5017665;28;20041;-77
2022/02/14 05:06:16;;;;;;;11.90;2.97;;;13.10;62.80;;;;;;5035049;28;20084;-72
2022/02/14 05:08:42;;;;;;;8.00;2.65;;;13.20;63.60;;;;;;5017924;28;20041;-75
2022/02/14 05:11:09;;;;;;;6.68;2.50;;;13.20;64.40;;;;;;5035182;28;20109;-72
2022/02/14 05:13:41;;;;;;;6.35;1.85;;;13.20;63.60;;;;;;5034821;28;20041;-72
2022/02/14 05:16:10;;;;;;;4.50;1.80;;;13.30;63.40;;;;;;5034723;28;20121;-75
2022/02/14 05:18:36;;;;;;;7.00;2.00;;;13.60;62.80;;;;;;5035048;28;20045;-72
2022/02/14 05:21:02;;;;;;;4.10;1.80;;;13.90;62.20;;;;;;5001196;28;20346;-74
2022/02/14 05:23:28;;;;;;;6.20;1.88;;;14.30;62.00;;;;;;5034735;28;20048;-73
2022/02/14 05:25:54;;;;;;;4.20;1.95;;;14.60;61.70;;;;;;5017451;28;20034;-74
2022/02/14 05:28:20;;;;;;;5.95;1.92;;;14.80;61.30;;;;;;5017566;28;20046;-73
2022/02/14 05:30:45;;;;;;;3.58;1.40;;;15.00;61.10;;;;;;5035032;28;20474;-73
2022/02/14 05:33:11;;;;;;;3.67;1.63;;;15.20;61.10;;;;;;5034839;28;20121;-71
2022/02/14 05:35:37;;;;;;;4.65;1.65;;;15.30;61.20;;;;;;5034898;28;20041;-71
2022/02/14 05:38:03;;;;;;;5.72;2.33;;;15.10;60.90;;;;;;5017491;28;20060;-73
2022/02/14 05:40:29;;;;;;;5.28;1.60;;;15.20;61.70;;;;;;5027382;28;20053;-68
2022/02/14 05:42:55;;;;;;;6.55;1.73;;;15.30;61.90;;;;;;5017319;28;20052;-73
2022/02/14 05:45:21;;;;;;;6.07;1.83;;;15.20;62.00;;;;;;5034715;28;20065;-72
2022/02/14 05:47:46;;;;;;;5.18;1.48;;;15.30;62.40;;;;;;5034176;28;20034;-73
2022/02/14 05:50:12;;;;;;;8.55;2.33;;;15.40;62.40;;;;;;5001112;28;20113;-72
2022/02/14 05:52:41;;;;;;;18.00;2.55;;;15.50;62.50;;;;;;5034224;28;20048;-72
2022/02/14 05:55:07;;;;;;;6.78;1.45;;;15.60;62.60;;;;;;5034038;28;20053;-72
2022/02/14 05:57:34;;;;;;;4.97;1.45;;;15.60;63.00;;;;;;5033704;28;20064;-71
2022/02/14 06:00:00;;;;;;;4.95;1.58;;;15.80;62.90;;;;;;5028178;28;20065;-71
2022/02/14 06:02:25;;;;;;;6.55;1.98;;;15.90;63.00;;;;;;5023898;28;20429;-71
2022/02/14 06:04:51;;;;;;;5.75;1.65;;;16.10;63.00;;;;;;5034031;28;20037;-71
2022/02/14 06:07:17;;;;;;;6.07;1.75;;;16.20;62.80;;;;;;5029757;28;20443;-73
2022/02/14 06:09:43;;;;;;;4.60;1.20;;;16.20;62.60;;;;;;5034318;28;20055;-72
2022/02/14 06:12:09;;;;;;;7.50;1.35;;;16.30;62.60;;;;;;5033968;28;20045;-71
2022/02/14 06:14:34;;;;;;;3.75;1.50;;;16.50;62.40;;;;;;5024816;28;20072;-72
2022/02/14 06:17:00;;;;;;;5.20;1.50;;;16.60;62.30;;;;;;5014515;28;20041;-72
2022/02/14 06:19:26;;;;;;;6.93;1.60;;;16.60;62.30;;;;;;4997591;28;20407;-72
2022/02/14 06:21:52;;;;;;;6.80;1.55;;;16.70;62.30;;;;;;5014569;28;20068;-72
2022/02/14 06:24:18;;;;;;;3.65;1.55;;;16.70;62.40;;;;;;5014406;28;20311;-71
2022/02/14 06:26:44;;;;;;;6.38;1.70;;;16.70;62.10;;;;;;4996671;28;20103;-73
2022/02/14 06:29:10;;;;;;;7.00;1.25;;;16.70;62.20;;;;;;5013763;28;20125;-72
2022/02/14 06:31:37;;;;;;;12.15;1.58;;;16.70;62.30;;;;;;5014136;28;20110;-73
2022/02/14 06:34:03;;;;;;;12.30;1.42;;;16.80;62.20;;;;;;4997259;28;20438;-72
2022/02/14 06:36:30;;;;;;;5.82;1.48;;;16.70;62.20;;;;;;5014122;28;20049;-73
2022/02/14 06:38:58;;;;;;;5.53;1.30;;;16.70;62.10;;;;;;5014107;28;20037;-73
2022/02/14 06:41:25;;;;;;;4.72;1.50;;;16.70;62.30;;;;;;5013964;28;20096;-73
2022/02/14 06:43:53;;;;;;;8.63;1.80;;;16.40;55.50;;;;;;5028136;28;20057;-72
2022/02/14 06:46:19;;;;;;;5.65;1.90;;;15.40;58.10;;;;;;5033860;28;20042;-74
2022/02/14 06:48:45;;;;;;;4.47;1.08;;;14.80;60.70;;;;;;5025911;28;20121;-75
2022/02/14 06:51:14;;;;;;;9.02;1.52;;;15.00;64.30;;;;;;5015185;28;20049;-74
2022/02/14 06:53:40;;;;;;;2.35;1.38;;;15.40;64.40;;;;;;5002467;28;20050;-75
2022/02/14 06:56:06;;;;;;;7.72;1.63;;;15.70;64.00;;;;;;5014823;28;20171;-73
2022/02/14 06:58:34;;;;;;;5.05;0.85;;;15.90;63.50;;;;;;5021848;28;20458;-75
2022/02/14 07:01:00;;;;;;;2.97;1.17;;;16.10;63.00;;;;;;5019374;28;20034;-75
2022/02/14 07:03:25;;;;;;;5.60;1.17;;;16.30;62.60;;;;;;5025235;28;20129;-74
2022/02/14 07:05:51;;;;;;;8.48;1.38;;;16.50;62.30;;;;;;5013235;28;20110;-74
2022/02/14 07:08:17;;;;;;;6.53;1.48;;;16.60;62.10;;;;;;5013197;28;20458;-76
2022/02/14 07:10:43;;;;;;;3.75;1.42;;;16.60;61.80;;;;;;5027508;28;20074;-74
2022/02/14 07:13:09;;;;;;;4.90;1.30;;;16.70;61.80;;;;;;5016274;28;20042;-74
2022/02/14 07:15:35;;;;;;;5.75;1.35;;;16.70;61.70;;;;;;5010009;28;20060;-77
2022/02/14 07:18:04;;;;;;;4.00;1.40;;;16.80;61.40;;;;;;5021736;28;20041;-73
2022/02/14 07:20:33;;;;;;;6.75;1.27;;;16.80;61.20;;;;;;5019903;28;20418;-76
2022/02/14 07:23:01;;;;;;;12.15;1.35;;;16.80;61.30;;;;;;5025354;28;20049;-74
2022/02/14 07:25:27;;;;;;;7.53;1.17;;;16.80;61.40;;;;;;5022647;28;20467;-74
2022/02/14 07:27:53;;;;;;;3.35;1.20;;;16.80;61.30;;;;;;5031511;28;20042;-75
2022/02/14 07:30:19;;;;;;;5.65;1.77;;;16.90;61.40;;;;;;5021173;28;20125;-75
2022/02/14 07:32:45;;;;;;;5.47;1.50;;;16.90;61.40;;;;;;5023310;28;20068;-74
2022/02/14 07:35:11;;;;;;;5.45;1.10;;;17.10;60.80;;;;;;5028897;28;20052;-72
2022/02/14 07:37:37;;;;;;;2.83;0.85;;;17.10;60.60;;;;;;5018084;28;20338;-73
2022/02/14 07:40:04;;;;;;;3.08;1.42;;;17.10;60.50;;;;;;5005973;28;20074;-75
2022/02/14 07:42:31;;;;;;;8.75;1.50;;;16.70;55.20;;;;;;5025164;28;20046;-75
2022/02/14 07:44:57;;;;;;;4.47;1.35;;;16.20;60.30;;;;;;5015836;28;20046;-71
2022/02/14 07:47:23;;;;;;;6.35;1.75;;;16.50;61.60;;;;;;5028587;28;20045;-71
2022/02/14 07:49:49;;;;;;;6.10;1.27;;;16.70;61.10;;;;;;5019371;28;20101;-74
2022/02/14 07:52:15;;;;;;;6.65;1.25;;;16.90;60.90;;;;;;5004250;28;20448;-70
2022/02/14 07:54:41;;;;;;;4.30;1.23;;;17.00;60.60;;;;;;5026264;28;20053;-74
2022/02/14 07:57:07;;;;;;;4.03;1.20;;;17.10;60.30;;;;;;5015814;28;20080;-75
2022/02/14 07:59:33;;;;;;;3.88;0.70;;;17.20;60.00;;;;;;5026569;28;20438;-78
2022/02/14 08:01:59;;;;;;;8.93;1.33;;;17.30;59.70;;;;;;5003219;28;20052;-73
2022/02/14 08:04:25;;;;;;;4.95;0.70;;;17.40;59.60;;;;;;5019688;28;20116;-71
2022/02/14 08:06:50;;;;;;;3.45;1.30;;;17.40;59.70;;;;;;5010404;28;20077;-72
2022/02/14 08:09:17;;;;;;;5.18;1.30;;;17.40;59.60;;;;;;5015473;28;20089;-72
2022/02/14 08:11:44;;;;;;;2.92;1.10;;;16.60;56.80;;;;;;5024273;28;20481;-71
2022/02/14 08:14:10;;;;;;;4.30;1.02;;;16.40;61.20;;;;;;5002771;28;20049;-72
2022/02/14 08:16:35;;;;;;;7.07;1.02;;;16.00;59.60;;;;;;5029738;28;20105;-71
2022/02/14 08:19:02;;;;;;;2.63;0.88;;;16.00;61.40;;;;;;5014692;28;20042;-73
2022/02/14 08:21:31;;;;;;;6.75;1.45;;;16.00;63.10;;;;;;5027375;28;20056;-73
2022/02/14 08:23:58;;;;;;;5.20;1.35;;;16.20;62.90;;;;;;5020372;28;20055;-71
2022/02/14 08:26:24;;;;;;;6.72;1.75;;;16.40;63.10;;;;;;5002419;28;20053;-71
2022/02/14 08:28:50;;;;;;;3.88;1.20;;;16.60;62.80;;;;;;5027614;28;20041;-71
2022/02/14 08:31:16;;;;;;;4.50;0.80;;;16.70;62.20;;;;;;5015257;28;20041;-72
2022/02/14 08:33:41;;;;;;;6.60;1.63;;;16.80;61.10;;;;;;5024816;28;20090;-71
2022/02/14 08:36:07;;;;;;;6.57;0.95;;;16.90;61.30;;;;;;5021732;28;20171;-71
2022/02/14 08:38:37;;;;;;;4.95;1.42;;;16.90;60.80;;;;;;5018526;28;20442;-71
2022/02/14 08:41:04;;;;;;;7.57;1.02;;;16.90;60.50;;;;;;5027965;28;20120;-76
2022/02/14 08:43:31;;;;;;;6.03;0.88;;;16.90;60.10;;;;;;5016415;28;20061;-71
2022/02/14 08:45:57;;;;;;;4.50;1.08;;;16.90;60.20;;;;;;5005609;28;20091;-72
2022/02/14 08:48:23;;;;;;;10.57;1.30;;;16.80;59.70;;;;;;4992993;28;20539;-71
2022/02/14 08:50:49;;;;;;;4.55;0.70;;;16.80;60.00;;;;;;4976349;28;20095;-73
2022/02/14 08:53:17;;;;;;;7.78;1.05;;;16.80;59.50;;;;;;4993649;28;20046;-73
2022/02/14 08:55:43;;;;;;;7.50;1.73;;;16.70;59.30;;;;;;5030763;28;20037;-72
2022/02/14 08:58:10;;;;;;;8.07;1.58;;;16.60;60.20;;;;;;5042557;28;20037;-72
2022/02/14 09:00:36;;;;;;;4.97;1.52;;;16.60;60.90;;;;;;5025881;28;20041;-72
2022/02/14 09:03:02;;;;;;;3.53;1.15;;;16.20;58.80;;;;;;5031628;28;20449;-76
2022/02/14 09:05:27;;;;;;;8.05;1.20;;;15.70;60.10;;;;;;5031853;28;20044;-75
2022/02/14 09:07:54;;;;;;;11.43;1.77;;;15.80;61.80;;;;;;5030984;28;20094;-72
2022/02/14 09:10:21;;;;;;;8.82;2.30;;;15.90;62.60;;;;;;5031455;28;20041;-74
2022/02/14 09:12:47;;;;;;;9.93;2.85;;;15.90;62.80;;;;;;5034157;28;20081;-73
2022/02/14 09:15:13;;;;;;;12.25;2.03;;;16.00;63.40;;;;;;5031392;28;20037;-75
2022/02/14 09:17:40;;;;;;;9.73;2.03;;;16.10;62.90;;;;;;5014980;28;20483;-74
2022/02/14 09:20:07;;;;;;;10.23;1.98;;;16.10;62.10;;;;;;5014971;28;20138;-75
2022/02/14 09:22:32;;;;;;;9.68;1.98;;;16.20;62.60;;;;;;5022571;28;20342;-73
2022/02/14 09:24:58;;;;;;;6.88;1.83;;;16.10;63.00;;;;;;5018585;28;20105;-74
2022/02/14 09:27:24;;;;;;;5.88;1.80;;;16.10;62.90;;;;;;5027538;28;20473;-74
2022/02/14 09:29:50;;;;;;;8.35;1.85;;;16.10;63.40;;;;;;5025794;28;20461;-75
2022/02/14 09:32:16;;;;;;;7.38;1.90;;;15.70;60.20;;;;;;5034494;28;20045;-75
2022/02/14 09:34:43;;;;;;;8.27;1.75;;;15.40;62.50;;;;;;5034923;28;20049;-77
2022/02/14 09:37:10;;;;;;;10.45;2.20;;;15.40;63.40;;;;;;5034473;28;20124;-74
2022/02/14 09:39:36;;;;;;;7.40;2.25;;;15.30;64.20;;;;;;5033505;28;20156;-75
2022/02/14 09:42:04;;;;;;;7.20;1.73;;;15.40;65.10;;;;;;5025559;28;20037;-74
2022/02/14 09:44:31;;;;;;;7.05;1.80;;;15.60;65.80;;;;;;5034646;28;20037;-74
2022/02/14 09:46:57;;;;;;;7.30;2.05;;;15.30;63.10;;;;;;5034237;28;20053;-73
2022/02/14 09:49:24;;;;;;;11.07;2.58;;;15.40;64.50;;;;;;5033936;28;20376;-74
2022/02/14 09:51:53;;;;;;;6.38;1.98;;;15.40;65.60;;;;;;5033159;28;20382;-74
2022/02/14 09:54:23;;;;;;;5.80;0.95;;;15.40;63.80;;;;;;5033388;28;20373;-73
2022/02/14 09:56:50;;;;;;;6.78;1.48;;;15.50;65.20;;;;;;5034184;28;20073;-74
2022/02/14 09:59:17;;;;;;;8.82;1.60;;;15.50;65.10;;;;;;5033239;28;20029;-73
2022/02/14 10:01:43;;;;;;;9.43;1.92;;;15.60;65.10;;;;;;5033802;28;20125;-73
2022/02/14 10:04:09;;;;;;;6.30;1.40;;;15.60;64.90;;;;;;5011211;28;20095;-73
2022/02/14 10:06:39;;;;;;;7.80;1.73;;;15.70;64.60;;;;;;4997168;28;20412;-73
2022/02/14 10:09:16;;;;;;;6.65;1.75;;;15.70;64.40;;;;;;5019619;28;20060;-73
2022/02/14 10:12:11;;;;;;;5.20;1.48;;;15.70;64.30;;;;;;5034032;28;20128;-73
2022/02/14 10:14:39;;;;;;;5.88;1.67;;;15.70;64.50;;;;;;4997060;28;20056;-73
2022/02/14 10:17:14;;;;;;;8.20;1.85;;;15.70;64.20;;;;;;5017515;28;20053;-73
2022/02/14 10:19:53;;;;;;;4.97;0.98;;;15.70;64.20;;;;;;5033668;28;20056;-73
2022/02/14 10:22:19;;;;;;;4.82;1.35;;;15.70;63.90;;;;;;5001800;28;20124;-74
2022/02/14 10:24:45;;;;;;;5.78;1.00;;;15.70;63.90;;;;;;5032495;28;20163;-73
2022/02/14 10:27:12;;;;;;;6.20;1.25;;;15.70;64.00;;;;;;5033625;28;20050;-73
2022/02/14 10:29:39;;;;;;;4.18;1.25;;;15.60;63.90;;;;;;5033071;28;20350;-74
2022/02/14 10:32:05;;;;;;;7.40;1.67;;;15.70;63.90;;;;;;5033317;28;20037;-74
2022/02/14 10:34:41;;;;;;;4.60;0.98;;;15.60;63.80;;;;;;5033885;28;20049;-73
2022/02/14 10:37:09;;;;;;;4.40;1.80;;;15.60;63.90;;;;;;5033274;28;20037;-74
2022/02/14 10:39:36;;;;;;;5.82;1.10;;;15.60;63.90;;;;;;5033856;28;20038;-74
2022/02/14 10:42:06;;;;;;;5.28;1.10;;;15.60;63.60;;;;;;5033019;28;20041;-74
2022/02/14 10:47:24;;;;;;;5.57;1.23;;;15.60;63.50;;;;;;5033170;28;20053;-73
2022/02/14 10:50:04;;;;;;;6.95;1.23;;;15.60;63.50;;;;;;5033343;28;20037;-74
2022/02/14 10:52:43;;;;;;;4.18;1.00;;;15.60;63.20;;;;;;5032674;28;20045;-74
2022/02/14 10:55:11;;;;;;;5.95;1.48;;;15.50;63.10;;;;;;5032820;28;20045;-74
2022/02/14 10:57:40;;;;;;;4.38;1.02;;;15.50;63.30;;;;;;5004944;28;20042;-74
2022/02/14 11:00:06;;;;;;;5.38;1.10;;;15.50;63.30;;;;;;5015863;28;20100;-74
2022/02/14 11:02:32;;;;;;;4.00;1.40;;;15.50;63.30;;;;;;5032431;28;20045;-74
2022/02/14 11:04:59;;;;;;;4.32;1.23;;;15.50;63.40;;;;;;5033425;28;20037;-73
2022/02/14 11:07:27;;;;;;;4.95;0.90;;;15.50;63.40;;;;;;5032903;28;20109;-78
2022/02/14 11:09:56;;;;;;;3.90;1.08;;;15.50;63.40;;;;;;5032794;28;20044;-75
2022/02/14 11:12:34;;;;;;;15.60;2.65;;;15.50;63.60;;;;;;5032525;28;20041;-77
2022/02/14 11:15:04;;;;;;;8.50;1.85;;;15.50;64.50;;;;;;5033012;28;20129;-75
2022/02/14 11:17:34;;;;;;;7.38;1.80;;;15.60;65.70;;;;;;5011999;28;20041;-75
2022/02/14 11:20:04;;;;;;;8.77;1.70;;;15.60;66.00;;;;;;5018579;28;20380;-76
2022/02/14 11:22:34;;;;;;;5.28;1.27;;;15.70;64.50;;;;;;5014997;28;20054;-74
2022/02/14 11:25:08;;;;;;;6.25;1.30;;;15.80;63.80;;;;;;5025452;28;20434;-75
2022/02/14 11:27:43;;;;;;;7.72;1.27;;;15.90;63.20;;;;;;5031304;28;20048;-72
2022/02/14 11:30:10;;;;;;;7.25;1.33;;;16.10;63.00;;;;;;5030694;28;20521;-75
2022/02/14 11:32:43;;;;;;;14.82;2.92;;;16.20;63.10;;;;;;5014932;28;20084;-74
2022/02/14 11:35:17;;;;;;;5.88;1.10;;;16.30;63.40;;;;;;5031014;28;20033;-75
2022/02/14 11:37:54;;;;;;;11.10;1.50;;;16.40;63.60;;;;;;5028741;28;20061;-77
2022/02/14 11:40:41;;;;;;;7.55;1.50;;;16.60;63.30;;;;;;5024962;28;20048;-75
2022/02/14 11:43:19;;;;;;;7.90;1.58;;;16.90;63.30;;;;;;5013901;28;20046;-75
2022/02/14 11:46:13;;;;;;;8.15;1.42;;;17.00;63.10;;;;;;5024894;28;20334;-75
2022/02/14 11:48:39;;;;;;;;;;;17.10;63.00;;;;;;5032827;28;20041;-75
2022/02/14 11:51:10;;;;;;;11.50;1.67;;;17.20;62.80;;;;;;5015078;28;19921;-76
2022/02/14 11:53:47;;;;;;;7.07;1.42;;;17.20;62.60;;;;;;5022728;28;20046;-75
2022/02/14 11:56:22;;;;;;;5.03;1.67;;;17.30;62.60;;;;;;5012332;28;20052;-75
2022/02/14 11:59:06;;;;;;;9.05;1.08;;;17.30;62.60;;;;;;5012364;28;20046;-77
2022/02/14 12:01:36;;;;;;;;;;;17.30;62.60;;;;;;5030329;28;20440;-76
2022/02/14 12:04:41;;;;;;;8.43;1.38;;;17.30;62.60;;;;;;5032419;28;20348;-72
2022/02/14 12:07:16;;;;;;;4.95;1.10;;;17.40;62.60;;;;;;4995488;28;20366;-74
2022/02/14 12:09:57;;;;;;;6.85;1.50;;;17.40;62.50;;;;;;4995407;28;20046;-74
2022/02/14 12:12:45;;;;;;;11.02;1.27;;;17.40;62.40;;;;;;5012481;28;20042;-74
2022/02/14 12:21:06;;;;;;;9.95;1.52;;;17.50;61.80;;;;;;5011935;28;20041;-74
2022/02/14 12:23:42;;;;;;;5.15;1.20;;;17.50;61.60;;;;;;4995288;28;20128;-73
2022/02/14 12:26:10;;;;;;;5.07;0.98;;;17.50;61.60;;;;;;5012188;28;20049;-74
2022/02/14 12:28:37;;;;;;;5.13;1.48;;;17.50;61.50;;;;;;5012134;28;20438;-74
2022/02/14 12:31:04;;;;;;;5.40;0.80;;;17.30;60.90;;;;;;5009595;28;20125;-73
2022/02/14 12:33:30;;;;;;;9.18;1.20;;;17.30;61.40;;;;;;5020844;28;20041;-74
2022/02/14 12:35:58;;;;;;;6.10;1.05;;;17.40;61.20;;;;;;4997530;28;20097;-72
2022/02/14 12:38:31;;;;;;;10.30;1.02;;;17.40;61.60;;;;;;5012652;28;20041;-73
2022/02/14 12:40:58;;;;;;;6.97;1.00;;;17.50;61.20;;;;;;5023931;28;20137;-73
2022/02/14 12:43:29;;;;;;;4.45;1.10;;;17.50;60.70;;;;;;5031302;28;20046;-73
2022/02/14 12:45:58;;;;;;;3.90;1.05;;;17.60;60.40;;;;;;5031762;28;20057;-73
2022/02/14 12:48:41;;;;;;;3.40;1.00;;;17.60;60.60;;;;;;5034860;28;20053;-73
2022/02/14 12:51:13;;;;;;;6.30;1.50;;;17.70;59.90;;;;;;5035371;28;20038;-73
2022/02/14 12:53:48;;;;;;;7.82;1.02;;;17.70;59.90;;;;;;5030677;28;20067;-78
2022/02/14 12:56:33;;;;;;;3.15;0.57;;;17.70;60.30;;;;;;5093993;28;20048;-74
2022/02/14 12:59:04;;;;;;;3.75;0.77;;;17.80;58.90;;;;;;5078307;28;20051;-73